Mildura, Australia
Current Conditions -  °F | °C
As of 5:00 PM on Wednesday 22 Oct 2014 (Local Time) from YMIA Reporting Station
Clear Clear  
Wind Chill: 97°   Ceiling: Unl
Heat Index: 97°   Visibility: 6mi
Dew Point: 32°   Wind: 10mph
Humidity: 10%   Direction: 180°S
Pressure: 29.88"   Gusts: NA
Location:  34.18°S, 142.17°E
Report Text: YMIA 220600Z AUTO 18009KT 170V250 9999 // NCD 36/M00 Q1012
Loading
Personal Weather Stations






























Interactive Weather Map
Tropical Storm Tracking
New forecast layout! Learn more

10-Day Weather Forecast

Advertisements
Track Severe Weather on mobile